createdAt,value
2023-10-19T00:00:20.921Z,0.50
2023-10-19T00:02:54.865Z,0.40
2023-10-19T00:05:28.051Z,0.40
2023-10-19T00:07:59.610Z,0.40
2023-10-19T00:10:35.213Z,0.40
2023-10-19T00:13:07.183Z,0.40
2023-10-19T00:15:41.664Z,0.40
2023-10-19T00:18:28.561Z,0.40
2023-10-19T00:21:12.818Z,0.43
2023-10-19T00:23:43.826Z,0.40
2023-10-19T00:26:19.109Z,0.50
2023-10-19T00:28:51.434Z,0.40
2023-10-19T00:31:22.127Z,0.37
2023-10-19T00:33:53.666Z,0.40
2023-10-19T00:36:25.206Z,0.40
2023-10-19T00:38:58.913Z,0.50
2023-10-19T00:41:31.848Z,0.40
2023-10-19T00:44:05.030Z,0.40
2023-10-19T00:46:40.238Z,0.40
2023-10-19T00:49:11.544Z,0.50
2023-10-19T00:51:56.083Z,0.40
2023-10-19T00:54:42.946Z,0.50
2023-10-19T00:57:14.255Z,0.40
2023-10-19T00:59:50.037Z,0.40
2023-10-19T01:02:21.847Z,0.50
2023-10-19T01:04:57.977Z,0.40
2023-10-19T01:07:31.326Z,0.40
2023-10-19T01:10:07.290Z,0.50
2023-10-19T01:12:41.090Z,0.40
2023-10-19T01:15:15.138Z,0.50
2023-10-19T01:17:47.720Z,0.50
2023-10-19T01:20:24.515Z,0.43
2023-10-19T01:23:08.208Z,0.40
2023-10-19T01:25:51.804Z,0.50
2023-10-19T01:28:26.539Z,0.40
2023-10-19T01:30:57.272Z,0.50
2023-10-19T01:33:29.947Z,0.50
2023-10-19T01:36:16.348Z,0.40
2023-10-19T01:38:49.319Z,0.50
2023-10-19T01:41:20.363Z,0.50
2023-10-19T01:43:52.724Z,0.40
2023-10-19T01:46:25.927Z,0.40
2023-10-19T01:48:58.277Z,0.50
2023-10-19T01:51:28.529Z,0.40
2023-10-19T01:54:02.446Z,0.50
2023-10-19T01:56:31.610Z,0.57
2023-10-19T01:59:02.543Z,0.40
2023-10-19T02:01:32.428Z,0.40
2023-10-19T02:04:05.467Z,0.50
2023-10-19T02:06:38.545Z,0.40
2023-10-19T02:09:23.505Z,0.47
2023-10-19T02:11:57.693Z,0.50
2023-10-19T02:14:27.354Z,0.40
2023-10-19T02:16:59.698Z,0.50
2023-10-19T02:19:30.971Z,0.40
2023-10-19T02:22:05.629Z,0.50
2023-10-19T02:24:36.485Z,0.40
2023-10-19T02:27:07.697Z,0.30
2023-10-19T02:29:40.458Z,0.43
2023-10-19T02:32:12.165Z,0.30
2023-10-19T02:34:41.257Z,0.50
2023-10-19T02:37:12.239Z,0.47
2023-10-19T02:39:45.410Z,0.40
2023-10-19T02:42:14.883Z,0.50
2023-10-19T02:44:45.608Z,0.40
2023-10-19T02:47:14.759Z,0.47
2023-10-19T02:50:02.401Z,0.43
2023-10-19T02:52:31.581Z,0.40
2023-10-19T02:55:01.962Z,0.43
2023-10-19T02:57:33.103Z,0.40
2023-10-19T03:00:09.316Z,0.50
2023-10-19T03:02:38.763Z,0.40
2023-10-19T03:05:16.371Z,0.50
2023-10-19T03:07:46.285Z,0.40
2023-10-19T03:10:25.566Z,0.40
2023-10-19T03:12:55.110Z,0.40
2023-10-19T03:15:25.826Z,0.50
2023-10-19T03:17:54.869Z,0.43
2023-10-19T03:20:29.123Z,0.40
2023-10-19T03:23:03.072Z,0.50
2023-10-19T03:25:57.206Z,0.40
2023-10-19T03:28:28.371Z,0.50
2023-10-19T03:31:01.344Z,0.40
2023-10-19T03:33:32.166Z,0.40
2023-10-19T03:36:04.042Z,0.43
2023-10-19T03:38:38.914Z,0.40
2023-10-19T03:41:11.231Z,0.47
2023-10-19T03:43:43.355Z,0.40
2023-10-19T03:46:24.172Z,0.40
2023-10-19T03:49:00.389Z,0.40
2023-10-19T03:51:41.642Z,0.40
2023-10-19T03:54:20.899Z,0.43
2023-10-19T03:56:54.038Z,0.40
2023-10-19T03:59:24.711Z,0.43
2023-10-19T04:01:55.000Z,0.50
2023-10-19T04:04:25.730Z,0.50
2023-10-19T04:07:00.110Z,0.50
2023-10-19T04:09:31.560Z,0.40
2023-10-19T04:12:04.211Z,0.40
2023-10-19T04:14:34.761Z,0.40
2023-10-19T04:17:07.889Z,0.50
2023-10-19T04:19:38.397Z,0.43
2023-10-19T04:22:13.004Z,0.50
2023-10-19T04:24:43.278Z,0.40
2023-10-19T04:27:14.798Z,0.47
2023-10-19T04:29:45.426Z,0.50
2023-10-19T04:32:16.274Z,0.50
2023-10-19T04:34:46.985Z,0.40
2023-10-19T04:37:20.313Z,0.50
2023-10-19T04:39:51.709Z,0.40
2023-10-19T04:42:24.460Z,0.40
2023-10-19T04:44:54.689Z,0.40
2023-10-19T04:47:27.021Z,0.40
2023-10-19T04:49:57.829Z,0.50
2023-10-19T04:52:29.723Z,0.50
2023-10-19T04:55:01.131Z,0.40
2023-10-19T04:57:32.264Z,0.40
2023-10-19T05:00:02.557Z,0.50
2023-10-19T05:02:33.363Z,0.50
2023-10-19T05:05:03.774Z,0.57
2023-10-19T05:07:35.988Z,0.40
2023-10-19T05:10:07.202Z,0.40
2023-10-19T05:12:37.474Z,0.40
2023-10-19T05:15:08.831Z,0.50
2023-10-19T05:17:39.070Z,0.50
2023-10-19T05:20:11.139Z,0.50
2023-10-19T05:22:43.648Z,0.40
2023-10-19T05:25:14.333Z,0.47
2023-10-19T05:27:47.458Z,0.50
2023-10-19T05:30:18.088Z,0.40
2023-10-19T05:32:48.682Z,0.40
2023-10-19T05:35:24.678Z,0.40
2023-10-19T05:37:57.237Z,0.43
2023-10-19T05:40:31.259Z,0.50
2023-10-19T05:43:03.066Z,0.40
2023-10-19T05:45:34.071Z,0.50
2023-10-19T05:48:05.635Z,0.50
2023-10-19T05:50:36.043Z,0.50
2023-10-19T05:53:08.433Z,0.40
2023-10-19T05:55:41.364Z,0.40
2023-10-19T05:58:11.721Z,0.40
2023-10-19T06:00:42.013Z,0.40
2023-10-19T06:03:12.478Z,0.40
2023-10-19T06:05:43.158Z,0.50
2023-10-19T06:08:16.053Z,0.40
2023-10-19T06:10:47.169Z,0.43
2023-10-19T06:13:18.287Z,0.40
2023-10-19T06:15:48.567Z,0.47
2023-10-19T06:18:18.894Z,0.40
2023-10-19T06:20:49.913Z,0.40
2023-10-19T06:23:22.540Z,0.40
2023-10-19T06:25:53.791Z,0.50
2023-10-19T06:28:24.440Z,0.50
2023-10-19T06:30:54.802Z,0.50
2023-10-19T06:33:25.226Z,0.50
2023-10-19T06:35:55.596Z,0.50
2023-10-19T06:38:27.847Z,0.50
2023-10-19T06:40:58.598Z,0.50
2023-10-19T06:43:33.477Z,0.40
2023-10-19T06:46:04.708Z,0.40
2023-10-19T06:48:35.533Z,0.40
2023-10-19T06:51:06.922Z,0.50
2023-10-19T06:53:39.071Z,0.40
2023-10-19T06:56:09.985Z,0.40
2023-10-19T06:58:40.298Z,0.50
2023-10-19T07:01:12.702Z,0.50
2023-10-19T07:03:43.712Z,0.40
2023-10-19T07:06:15.588Z,0.50
2023-10-19T07:08:48.190Z,0.50
2023-10-19T07:11:18.893Z,0.50
2023-10-19T07:13:49.138Z,0.40
2023-10-19T07:16:21.849Z,0.40
2023-10-19T07:18:52.219Z,0.40
2023-10-19T07:21:22.629Z,0.50
2023-10-19T07:23:55.585Z,0.43
2023-10-19T07:26:33.239Z,0.47
2023-10-19T07:29:03.546Z,0.40
2023-10-19T07:31:34.508Z,0.50
2023-10-19T07:34:05.402Z,0.43
2023-10-19T07:36:38.690Z,0.50
2023-10-19T07:39:15.790Z,0.50
2023-10-19T07:41:46.092Z,0.50
2023-10-19T07:44:16.382Z,0.50
2023-10-19T07:46:46.653Z,0.40
2023-10-19T07:49:17.088Z,0.40
2023-10-19T07:51:51.676Z,0.50
2023-10-19T07:54:23.892Z,0.40
2023-10-19T07:56:54.362Z,0.40
2023-10-19T07:59:24.566Z,0.50
2023-10-19T08:01:54.976Z,0.50
2023-10-19T08:04:27.084Z,0.50
2023-10-19T08:06:57.409Z,0.50
2023-10-19T08:09:33.595Z,0.50
2023-10-19T08:12:07.399Z,0.43
2023-10-19T08:14:37.616Z,0.50
2023-10-19T08:17:10.668Z,0.43
2023-10-19T08:19:40.883Z,0.50
2023-10-19T08:22:11.498Z,0.50
2023-10-19T08:24:46.767Z,0.43
2023-10-19T08:27:19.150Z,0.50
2023-10-19T08:29:50.493Z,0.50
2023-10-19T08:32:20.847Z,0.50
2023-10-19T08:34:51.105Z,0.50
2023-10-19T08:37:21.368Z,0.40
2023-10-19T08:39:53.274Z,0.47
2023-10-19T08:42:23.698Z,0.50
2023-10-19T08:44:53.953Z,0.50
2023-10-19T08:47:27.370Z,0.40
2023-10-19T08:49:58.279Z,0.40
2023-10-19T08:52:29.824Z,0.50
2023-10-19T08:55:02.346Z,0.43
2023-10-19T08:57:33.019Z,0.40
2023-10-19T09:00:04.106Z,0.50
2023-10-19T09:02:35.163Z,0.43
2023-10-19T09:05:10.802Z,0.50
2023-10-19T09:07:43.528Z,0.60
2023-10-19T09:10:19.665Z,0.43
2023-10-19T09:13:04.074Z,0.40
2023-10-19T09:15:35.769Z,0.50
2023-10-19T09:18:17.639Z,0.40
2023-10-19T09:20:55.763Z,0.50
2023-10-19T09:23:26.972Z,0.50
2023-10-19T09:26:02.316Z,0.50
2023-10-19T09:28:35.650Z,0.50
2023-10-19T09:31:06.586Z,0.50
2023-10-19T09:33:37.942Z,0.50
2023-10-19T09:36:14.966Z,0.47
2023-10-19T09:38:51.447Z,0.60
2023-10-19T09:41:24.694Z,0.50
2023-10-19T09:43:57.471Z,0.40
2023-10-19T09:46:31.170Z,0.50
2023-10-19T09:49:02.747Z,0.50
2023-10-19T09:51:34.160Z,0.40
2023-10-19T09:54:11.571Z,0.40
2023-10-19T09:56:47.534Z,0.50
2023-10-19T09:59:26.312Z,0.50
2023-10-19T10:02:10.107Z,0.50
2023-10-19T10:04:41.586Z,0.50
2023-10-19T10:07:13.072Z,0.47
2023-10-19T10:09:45.979Z,0.50
2023-10-19T10:12:25.455Z,0.50
2023-10-19T10:15:03.903Z,0.50
2023-10-19T10:17:39.442Z,0.50
2023-10-19T10:20:35.971Z,0.40
2023-10-19T10:23:26.546Z,0.50
2023-10-19T10:25:56.978Z,0.40
2023-10-19T10:28:30.099Z,0.43
2023-10-19T10:31:17.749Z,0.40
2023-10-19T10:33:49.887Z,0.40
2023-10-19T10:36:21.094Z,0.50
2023-10-19T10:38:52.633Z,0.50
2023-10-19T10:41:28.311Z,0.60
2023-10-19T10:44:02.014Z,0.50
2023-10-19T10:46:32.598Z,0.50
2023-10-19T10:49:04.112Z,0.47
2023-10-19T10:51:34.701Z,0.50
2023-10-19T10:54:05.128Z,0.50
2023-10-19T10:56:35.379Z,0.50
2023-10-19T10:59:16.575Z,0.50
2023-10-19T11:01:46.876Z,0.50
2023-10-19T11:04:22.217Z,0.50
2023-10-19T11:06:53.236Z,0.50
2023-10-19T11:09:24.524Z,0.50
2023-10-19T11:11:55.742Z,0.50
2023-10-19T11:14:27.679Z,0.50
2023-10-19T11:16:58.374Z,0.50
2023-10-19T11:19:43.240Z,0.50
2023-10-19T11:22:15.046Z,0.50
2023-10-19T11:24:45.331Z,0.50
2023-10-19T11:27:15.597Z,0.50
2023-10-19T11:29:59.825Z,0.50
2023-10-19T11:32:39.928Z,0.47
2023-10-19T11:35:11.419Z,0.40
2023-10-19T11:37:52.676Z,0.40
2023-10-19T11:40:23.806Z,0.40
2023-10-19T11:42:54.157Z,0.50
2023-10-19T11:45:26.969Z,0.50
2023-10-19T11:47:58.962Z,0.50
2023-10-19T11:50:30.175Z,0.50
2023-10-19T11:53:00.492Z,0.50
2023-10-19T11:55:30.904Z,0.50
2023-10-19T11:58:01.292Z,0.60
2023-10-19T12:00:39.704Z,0.50
2023-10-19T12:03:10.251Z,0.40
2023-10-19T12:05:41.103Z,0.40
2023-10-19T12:08:11.369Z,0.47
2023-10-19T12:10:41.555Z,0.47
2023-10-19T12:13:11.799Z,0.40
2023-10-19T12:15:43.672Z,0.50
2023-10-19T12:18:13.988Z,0.50
2023-10-19T12:20:47.209Z,0.50
2023-10-19T12:23:17.969Z,0.40
2023-10-19T12:25:57.319Z,0.50
2023-10-19T12:28:28.238Z,0.50
2023-10-19T12:31:00.206Z,0.40
2023-10-19T12:33:30.702Z,0.43
2023-10-19T12:36:01.139Z,0.40
2023-10-19T12:38:31.509Z,0.50
2023-10-19T12:41:01.877Z,0.50
2023-10-19T12:43:32.154Z,0.50
2023-10-19T12:46:03.965Z,0.43
2023-10-19T12:48:35.354Z,0.40
2023-10-19T12:51:06.208Z,0.40
2023-10-19T12:53:36.777Z,0.40
2023-10-19T12:56:07.703Z,0.40
2023-10-19T12:58:38.894Z,0.50
2023-10-19T13:01:18.154Z,0.43
2023-10-19T13:03:49.293Z,0.50
2023-10-19T13:06:21.298Z,0.50
2023-10-19T13:08:51.687Z,0.40
2023-10-19T13:11:22.052Z,0.50
2023-10-19T13:13:52.361Z,0.40
2023-10-19T13:16:24.557Z,0.50
2023-10-19T13:18:54.841Z,0.40
2023-10-19T13:21:29.698Z,0.50
2023-10-19T13:24:00.069Z,0.50
2023-10-19T13:26:30.315Z,0.40
2023-10-19T13:29:01.291Z,0.50
2023-10-19T13:31:34.207Z,0.47
2023-10-19T13:34:05.087Z,0.40
2023-10-19T13:36:35.278Z,0.40
2023-10-19T13:39:05.565Z,0.40
2023-10-19T13:41:35.827Z,0.50
2023-10-19T13:44:06.854Z,0.40
2023-10-19T13:46:39.146Z,0.43
2023-10-19T13:49:11.639Z,0.40
2023-10-19T13:51:42.371Z,0.40
2023-10-19T13:54:12.842Z,0.40
2023-10-19T13:56:43.047Z,0.40
2023-10-19T13:59:14.395Z,0.40
2023-10-19T14:01:46.566Z,0.40
2023-10-19T14:04:16.967Z,0.47
2023-10-19T14:06:51.082Z,0.40
2023-10-19T14:09:21.369Z,0.40
2023-10-19T14:11:51.762Z,0.40
2023-10-19T14:14:22.945Z,0.40
2023-10-19T14:16:54.840Z,0.40
2023-10-19T14:19:25.119Z,0.40
2023-10-19T14:21:55.827Z,0.40
2023-10-19T14:24:26.159Z,0.50
2023-10-19T14:26:56.517Z,0.40
2023-10-19T14:29:26.810Z,0.40
2023-10-19T14:31:58.919Z,0.40
2023-10-19T14:34:31.923Z,0.40
2023-10-19T14:37:02.801Z,0.40
2023-10-19T14:39:33.198Z,0.40
2023-10-19T14:42:03.433Z,0.40
2023-10-19T14:44:35.328Z,0.40
2023-10-19T14:47:08.201Z,0.40
2023-10-19T14:49:39.246Z,0.33
2023-10-19T14:52:09.516Z,0.50
2023-10-19T14:54:39.790Z,0.40
2023-10-19T14:57:09.982Z,0.40
2023-10-19T14:59:40.225Z,0.40
2023-10-19T15:02:14.137Z,0.40
2023-10-19T15:04:45.421Z,0.40
2023-10-19T15:07:15.677Z,0.50
2023-10-19T15:09:48.029Z,0.40
2023-10-19T15:12:20.794Z,0.40
2023-10-19T15:14:51.032Z,0.40
2023-10-19T15:17:23.778Z,0.30
2023-10-19T15:19:56.078Z,0.40
2023-10-19T15:22:26.409Z,0.40
2023-10-19T15:24:56.634Z,0.30
2023-10-19T15:27:27.060Z,0.40
2023-10-19T15:29:58.642Z,0.40
2023-10-19T15:32:32.559Z,0.40
2023-10-19T15:35:03.225Z,0.40
2023-10-19T15:37:33.556Z,0.30
2023-10-19T15:40:05.693Z,0.40
2023-10-19T15:42:37.901Z,0.30
2023-10-19T15:45:09.945Z,0.40
2023-10-19T15:47:43.089Z,0.30
2023-10-19T15:50:14.325Z,0.40
2023-10-19T15:52:45.582Z,0.30
2023-10-19T15:55:16.590Z,0.40
2023-10-19T15:57:46.812Z,0.40
2023-10-19T16:00:18.176Z,0.30
2023-10-19T16:02:50.148Z,0.40
2023-10-19T16:05:21.364Z,0.30
2023-10-19T16:07:51.751Z,0.37
2023-10-19T16:10:22.949Z,0.30
2023-10-19T16:12:53.138Z,0.30
2023-10-19T16:15:23.391Z,0.30
2023-10-19T16:17:55.914Z,0.30
2023-10-19T16:20:26.796Z,0.30
2023-10-19T16:22:57.106Z,0.30
2023-10-19T16:25:27.436Z,0.30
2023-10-19T16:27:57.818Z,0.30
2023-10-19T16:30:33.320Z,0.30
2023-10-19T16:33:05.778Z,0.30
2023-10-19T16:35:35.987Z,0.30
2023-10-19T16:38:06.548Z,0.30
2023-10-19T16:40:36.991Z,0.30
2023-10-19T16:43:07.467Z,0.30
2023-10-19T16:45:38.404Z,0.30
2023-10-19T16:48:11.888Z,0.30
2023-10-19T16:50:43.134Z,0.30
2023-10-19T16:53:14.426Z,0.30
2023-10-19T16:55:44.745Z,0.30
2023-10-19T16:58:14.956Z,0.30
2023-10-19T17:00:46.912Z,0.30
2023-10-19T17:03:18.850Z,0.30
2023-10-19T17:05:50.085Z,0.30
2023-10-19T17:08:21.028Z,0.30
2023-10-19T17:10:51.360Z,0.20
2023-10-19T17:13:21.585Z,0.30
2023-10-19T17:15:51.847Z,0.30
2023-10-19T17:18:24.152Z,0.20
2023-10-19T17:20:54.633Z,0.30
2023-10-19T17:23:24.878Z,0.30
2023-10-19T17:25:55.187Z,0.30
2023-10-19T17:28:25.397Z,0.30
2023-10-19T17:30:56.439Z,0.20
2023-10-19T17:33:29.382Z,0.30
2023-10-19T17:35:59.841Z,0.30
2023-10-19T17:38:30.114Z,0.30
2023-10-19T17:41:01.271Z,0.30
2023-10-19T17:43:31.478Z,0.30
2023-10-19T17:46:01.823Z,0.30
2023-10-19T17:48:34.387Z,0.30
2023-10-19T17:51:12.829Z,0.30
2023-10-19T17:53:43.732Z,0.30
2023-10-19T17:56:14.329Z,0.30
2023-10-19T17:58:44.554Z,0.30
2023-10-19T18:01:15.466Z,0.30
2023-10-19T18:03:47.656Z,0.30
2023-10-19T18:06:18.297Z,0.30
2023-10-19T18:08:48.512Z,0.30
2023-10-19T18:11:20.239Z,0.30
2023-10-19T18:13:50.533Z,0.30
2023-10-19T18:16:21.270Z,0.30
2023-10-19T18:18:53.698Z,0.30
2023-10-19T18:21:25.073Z,0.30
2023-10-19T18:23:55.314Z,0.30
2023-10-19T18:26:25.554Z,0.20
2023-10-19T18:28:55.973Z,0.30
2023-10-19T18:31:27.228Z,0.30
2023-10-19T18:34:00.777Z,0.30
2023-10-19T18:36:34.962Z,0.30
2023-10-19T18:39:05.325Z,0.30
2023-10-19T18:41:35.975Z,0.30
2023-10-19T18:44:06.361Z,0.30
2023-10-19T18:46:36.837Z,0.30
2023-10-19T18:49:11.842Z,0.30
2023-10-19T18:51:42.564Z,0.30
2023-10-19T18:54:12.933Z,0.30
2023-10-19T18:56:43.223Z,0.30
2023-10-19T18:59:14.919Z,0.20
2023-10-19T19:01:47.239Z,0.30
2023-10-19T19:04:20.723Z,0.30
2023-10-19T19:06:51.763Z,0.30
2023-10-19T19:09:22.251Z,0.30
2023-10-19T19:11:52.480Z,0.30
2023-10-19T19:14:23.950Z,0.30
2023-10-19T19:16:55.365Z,0.40
2023-10-19T19:19:27.507Z,0.30
2023-10-19T19:21:58.109Z,0.30
2023-10-19T19:24:28.634Z,0.37
2023-10-19T19:27:02.121Z,0.30
2023-10-19T19:29:33.247Z,0.40
2023-10-19T19:32:06.185Z,0.40
2023-10-19T19:34:39.318Z,0.30
2023-10-19T19:37:10.149Z,0.30
2023-10-19T19:39:40.869Z,0.30
2023-10-19T19:42:12.518Z,0.30
2023-10-19T19:44:43.803Z,0.30
2023-10-19T19:47:15.206Z,0.30
2023-10-19T19:49:47.636Z,0.30
2023-10-19T19:52:18.154Z,0.30
2023-10-19T19:54:50.140Z,0.30
2023-10-19T19:57:21.001Z,0.30
2023-10-19T19:59:51.256Z,0.33
2023-10-19T20:02:21.707Z,0.33
2023-10-19T20:04:55.098Z,0.30
2023-10-19T20:07:27.301Z,0.33
2023-10-19T20:09:58.620Z,0.30
2023-10-19T20:12:29.435Z,0.37
2023-10-19T20:15:00.524Z,0.40
2023-10-19T20:17:31.425Z,0.30
2023-10-19T20:20:08.504Z,0.30
2023-10-19T20:22:39.153Z,0.33
2023-10-19T20:25:13.543Z,0.40
2023-10-19T20:27:45.580Z,0.30
2023-10-19T20:30:17.831Z,0.30
2023-10-19T20:32:49.065Z,0.30
2023-10-19T20:35:22.539Z,0.30
2023-10-19T20:37:53.766Z,0.40
2023-10-19T20:40:24.861Z,0.30
2023-10-19T20:42:56.557Z,0.30
2023-10-19T20:45:27.927Z,0.40
2023-10-19T20:47:59.713Z,0.30
2023-10-19T20:50:32.050Z,0.30
2023-10-19T20:53:02.494Z,0.40
2023-10-19T20:55:32.855Z,0.40
2023-10-19T20:58:05.117Z,0.40
2023-10-19T21:00:35.356Z,0.40
2023-10-19T21:03:06.291Z,0.30
2023-10-19T21:05:39.582Z,0.30
2023-10-19T21:08:10.165Z,0.40
2023-10-19T21:10:40.538Z,0.30
2023-10-19T21:13:10.942Z,0.40
2023-10-19T21:15:41.428Z,0.40
2023-10-19T21:18:12.052Z,0.37
2023-10-19T21:20:43.882Z,0.30
2023-10-19T21:23:14.190Z,0.40
2023-10-19T21:25:44.441Z,0.40
2023-10-19T21:28:14.811Z,0.30
2023-10-19T21:30:46.904Z,0.40
2023-10-19T21:33:17.343Z,0.30
2023-10-19T21:35:49.324Z,0.40
2023-10-19T21:38:20.313Z,0.40
2023-10-19T21:40:50.769Z,0.40
2023-10-19T21:43:21.395Z,0.40
2023-10-19T21:45:52.578Z,0.40
2023-10-19T21:48:23.059Z,0.40
2023-10-19T21:51:00.636Z,0.40
2023-10-19T21:53:31.329Z,0.30
2023-10-19T21:56:01.642Z,0.40
2023-10-19T21:58:32.005Z,0.40
2023-10-19T22:01:06.548Z,0.40
2023-10-19T22:03:37.420Z,0.40
2023-10-19T22:06:09.496Z,0.40
2023-10-19T22:08:39.973Z,0.40
2023-10-19T22:11:10.665Z,0.40
2023-10-19T22:13:41.256Z,0.40
2023-10-19T22:16:11.660Z,0.40
2023-10-19T22:18:41.951Z,0.40
2023-10-19T22:21:14.152Z,0.40
2023-10-19T22:23:44.531Z,0.43
2023-10-19T22:26:14.784Z,0.40
2023-10-19T22:28:45.090Z,0.40
2023-10-19T22:31:16.002Z,0.40
2023-10-19T22:33:46.385Z,0.50
2023-10-19T22:36:18.177Z,0.40
2023-10-19T22:38:48.500Z,0.40
2023-10-19T22:41:19.007Z,0.40
2023-10-19T22:43:51.540Z,0.40
2023-10-19T22:46:21.862Z,0.40
2023-10-19T22:48:52.520Z,0.43
2023-10-19T22:51:24.652Z,0.40
2023-10-19T22:53:54.955Z,0.50
2023-10-19T22:56:25.882Z,0.40
2023-10-19T22:58:56.740Z,0.50
2023-10-19T23:01:27.000Z,0.47
2023-10-19T23:03:58.932Z,0.57
2023-10-19T23:06:31.545Z,0.40
2023-10-19T23:09:02.594Z,0.40
2023-10-19T23:11:32.818Z,0.40
2023-10-19T23:14:05.119Z,0.50
2023-10-19T23:16:37.663Z,0.50
2023-10-19T23:19:12.838Z,0.50
2023-10-19T23:21:45.606Z,0.50
2023-10-19T23:24:19.242Z,0.47
2023-10-19T23:26:50.160Z,0.50
2023-10-19T23:29:20.674Z,0.40
2023-10-19T23:31:51.595Z,0.40
2023-10-19T23:34:22.018Z,0.50
2023-10-19T23:36:54.183Z,0.40
2023-10-19T23:39:29.369Z,0.50
2023-10-19T23:42:01.317Z,0.40
2023-10-19T23:44:34.840Z,0.40
2023-10-19T23:47:06.015Z,0.40
2023-10-19T23:49:38.030Z,0.40
2023-10-19T23:52:13.182Z,0.40
2023-10-19T23:54:43.664Z,0.50
2023-10-19T23:57:14.298Z,0.40
2023-10-19T23:59:45.091Z,0.50
